sensor_id;sensor_type;location;lat;lon;timestamp;temperature;humidity
80367;DHT22;70058;42.660;23.366;2023-07-20T00:01:46;24.70;47.40
80367;DHT22;70058;42.660;23.366;2023-07-20T00:04:13;24.80;47.90
80367;DHT22;70058;42.660;23.366;2023-07-20T00:06:39;25.00;47.40
80367;DHT22;70058;42.660;23.366;2023-07-20T00:09:08;25.10;46.50
80367;DHT22;70058;42.660;23.366;2023-07-20T00:11:37;25.20;46.70
80367;DHT22;70058;42.660;23.366;2023-07-20T00:14:04;25.20;46.40
80367;DHT22;70058;42.660;23.366;2023-07-20T00:16:29;25.30;45.60
80367;DHT22;70058;42.660;23.366;2023-07-20T00:18:55;25.20;44.90
80367;DHT22;70058;42.660;23.366;2023-07-20T00:21:21;25.10;44.80
80367;DHT22;70058;42.660;23.366;2023-07-20T00:23:47;25.20;44.90
80367;DHT22;70058;42.660;23.366;2023-07-20T00:26:12;25.30;45.20
80367;DHT22;70058;42.660;23.366;2023-07-20T00:28:38;25.30;45.60
80367;DHT22;70058;42.660;23.366;2023-07-20T00:31:04;25.50;45.00
80367;DHT22;70058;42.660;23.366;2023-07-20T00:33:30;25.50;45.40
80367;DHT22;70058;42.660;23.366;2023-07-20T00:35:56;25.40;45.10
80367;DHT22;70058;42.660;23.366;2023-07-20T00:38:21;25.60;44.90
80367;DHT22;70058;42.660;23.366;2023-07-20T00:40:47;25.60;44.80
80367;DHT22;70058;42.660;23.366;2023-07-20T00:43:14;25.60;45.50
80367;DHT22;70058;42.660;23.366;2023-07-20T00:45:40;25.30;46.70
80367;DHT22;70058;42.660;23.366;2023-07-20T00:48:06;25.00;47.60
80367;DHT22;70058;42.660;23.366;2023-07-20T00:50:33;25.00;47.70
80367;DHT22;70058;42.660;23.366;2023-07-20T00:52:59;24.90;48.00
80367;DHT22;70058;42.660;23.366;2023-07-20T00:55:26;24.90;48.10
80367;DHT22;70058;42.660;23.366;2023-07-20T00:57:52;24.90;48.30
80367;DHT22;70058;42.660;23.366;2023-07-20T01:00:19;24.70;49.10
80367;DHT22;70058;42.660;23.366;2023-07-20T01:02:45;24.50;49.90
80367;DHT22;70058;42.660;23.366;2023-07-20T01:05:12;24.50;49.70
80367;DHT22;70058;42.660;23.366;2023-07-20T01:08:02;24.40;49.90
80367;DHT22;70058;42.660;23.366;2023-07-20T01:10:40;24.50;49.20
80367;DHT22;70058;42.660;23.366;2023-07-20T01:13:09;24.40;49.50
80367;DHT22;70058;42.660;23.366;2023-07-20T01:15:35;24.30;49.90
80367;DHT22;70058;42.660;23.366;2023-07-20T01:18:01;24.40;50.00
80367;DHT22;70058;42.660;23.366;2023-07-20T01:20:28;24.30;50.10
80367;DHT22;70058;42.660;23.366;2023-07-20T01:28:48;24.20;51.10
80367;DHT22;70058;42.660;23.366;2023-07-20T01:33:48;24.10;51.10
80367;DHT22;70058;42.660;23.366;2023-07-20T01:36:14;24.10;51.30
80367;DHT22;70058;42.660;23.366;2023-07-20T01:38:42;24.00;50.80
80367;DHT22;70058;42.660;23.366;2023-07-20T01:41:08;24.00;50.60
80367;DHT22;70058;42.660;23.366;2023-07-20T01:43:34;24.00;50.60
80367;DHT22;70058;42.660;23.366;2023-07-20T01:46:00;23.90;50.50
80367;DHT22;70058;42.660;23.366;2023-07-20T01:48:25;23.90;50.80
80367;DHT22;70058;42.660;23.366;2023-07-20T01:50:51;23.90;51.00
80367;DHT22;70058;42.660;23.366;2023-07-20T01:53:17;23.90;50.90
80367;DHT22;70058;42.660;23.366;2023-07-20T01:55:43;23.90;50.90
80367;DHT22;70058;42.660;23.366;2023-07-20T01:58:08;23.80;51.00
80367;DHT22;70058;42.660;23.366;2023-07-20T02:00:37;23.80;51.40
80367;DHT22;70058;42.660;23.366;2023-07-20T02:03:02;23.70;51.10
80367;DHT22;70058;42.660;23.366;2023-07-20T02:05:28;23.70;51.00
80367;DHT22;70058;42.660;23.366;2023-07-20T02:07:53;23.80;50.60
80367;DHT22;70058;42.660;23.366;2023-07-20T02:10:19;23.80;50.70
80367;DHT22;70058;42.660;23.366;2023-07-20T02:12:46;23.70;50.80
80367;DHT22;70058;42.660;23.366;2023-07-20T02:15:12;23.70;51.00
80367;DHT22;70058;42.660;23.366;2023-07-20T02:17:39;23.70;51.30
80367;DHT22;70058;42.660;23.366;2023-07-20T02:20:07;23.70;51.30
80367;DHT22;70058;42.660;23.366;2023-07-20T02:22:34;23.70;51.30
80367;DHT22;70058;42.660;23.366;2023-07-20T02:25:00;23.70;51.20
80367;DHT22;70058;42.660;23.366;2023-07-20T02:27:25;23.50;51.60
80367;DHT22;70058;42.660;23.366;2023-07-20T02:29:51;23.50;51.60
80367;DHT22;70058;42.660;23.366;2023-07-20T02:32:17;23.50;52.10
80367;DHT22;70058;42.660;23.366;2023-07-20T02:34:43;23.50;52.20
80367;DHT22;70058;42.660;23.366;2023-07-20T02:37:08;23.60;52.00
80367;DHT22;70058;42.660;23.366;2023-07-20T02:39:34;23.50;52.20
80367;DHT22;70058;42.660;23.366;2023-07-20T02:42:00;23.50;52.00
80367;DHT22;70058;42.660;23.366;2023-07-20T02:44:25;23.50;52.30
80367;DHT22;70058;42.660;23.366;2023-07-20T02:46:51;23.50;52.20
80367;DHT22;70058;42.660;23.366;2023-07-20T02:49:16;23.50;52.30
80367;DHT22;70058;42.660;23.366;2023-07-20T02:51:42;23.40;52.50
80367;DHT22;70058;42.660;23.366;2023-07-20T02:54:08;23.50;52.70
80367;DHT22;70058;42.660;23.366;2023-07-20T02:56:34;23.40;52.80
80367;DHT22;70058;42.660;23.366;2023-07-20T02:59:01;23.40;52.30
80367;DHT22;70058;42.660;23.366;2023-07-20T03:01:27;23.50;53.10
80367;DHT22;70058;42.660;23.366;2023-07-20T03:03:54;23.50;52.10
80367;DHT22;70058;42.660;23.366;2023-07-20T03:06:20;23.50;52.10
80367;DHT22;70058;42.660;23.366;2023-07-20T03:08:46;23.50;52.00
80367;DHT22;70058;42.660;23.366;2023-07-20T03:11:19;23.40;52.40
80367;DHT22;70058;42.660;23.366;2023-07-20T03:13:46;23.40;52.80
80367;DHT22;70058;42.660;23.366;2023-07-20T03:16:13;23.30;52.70
80367;DHT22;70058;42.660;23.366;2023-07-20T03:18:41;23.40;52.50
80367;DHT22;70058;42.660;23.366;2023-07-20T03:21:08;23.40;52.50
80367;DHT22;70058;42.660;23.366;2023-07-20T03:23:34;23.50;52.30
80367;DHT22;70058;42.660;23.366;2023-07-20T03:26:00;23.50;52.10
80367;DHT22;70058;42.660;23.366;2023-07-20T03:28:26;23.50;51.80
80367;DHT22;70058;42.660;23.366;2023-07-20T03:30:56;23.70;51.00
80367;DHT22;70058;42.660;23.366;2023-07-20T03:33:31;23.70;51.20
80367;DHT22;70058;42.660;23.366;2023-07-20T03:35:57;23.80;50.90
80367;DHT22;70058;42.660;23.366;2023-07-20T03:38:24;23.70;51.20
80367;DHT22;70058;42.660;23.366;2023-07-20T03:40:50;23.70;51.50
80367;DHT22;70058;42.660;23.366;2023-07-20T03:43:16;23.70;51.80
80367;DHT22;70058;42.660;23.366;2023-07-20T03:45:43;23.80;52.20
80367;DHT22;70058;42.660;23.366;2023-07-20T03:48:08;23.90;51.40
80367;DHT22;70058;42.660;23.366;2023-07-20T03:50:34;24.00;51.60
80367;DHT22;70058;42.660;23.366;2023-07-20T03:53:00;24.00;51.40
80367;DHT22;70058;42.660;23.366;2023-07-20T03:55:26;24.00;51.40
80367;DHT22;70058;42.660;23.366;2023-07-20T03:57:51;24.00;52.10
80367;DHT22;70058;42.660;23.366;2023-07-20T04:00:18;24.10;51.50
80367;DHT22;70058;42.660;23.366;2023-07-20T04:02:44;24.10;51.70
80367;DHT22;70058;42.660;23.366;2023-07-20T04:05:10;24.10;51.10
80367;DHT22;70058;42.660;23.366;2023-07-20T04:07:35;24.30;50.70
80367;DHT22;70058;42.660;23.366;2023-07-20T04:10:01;24.40;50.40
80367;DHT22;70058;42.660;23.366;2023-07-20T04:12:27;24.50;50.20
80367;DHT22;70058;42.660;23.366;2023-07-20T04:14:52;24.60;50.60
80367;DHT22;70058;42.660;23.366;2023-07-20T04:17:18;24.70;50.50
80367;DHT22;70058;42.660;23.366;2023-07-20T04:19:44;24.90;49.00
80367;DHT22;70058;42.660;23.366;2023-07-20T04:22:09;25.30;48.50
80367;DHT22;70058;42.660;23.366;2023-07-20T04:24:35;26.10;47.30
80367;DHT22;70058;42.660;23.366;2023-07-20T04:27:01;27.00;45.20
80367;DHT22;70058;42.660;23.366;2023-07-20T04:29:27;27.90;43.60
80367;DHT22;70058;42.660;23.366;2023-07-20T04:31:52;28.60;41.40
80367;DHT22;70058;42.660;23.366;2023-07-20T04:34:18;29.20;40.40
80367;DHT22;70058;42.660;23.366;2023-07-20T04:36:44;29.80;40.00
80367;DHT22;70058;42.660;23.366;2023-07-20T04:39:10;30.30;38.00
80367;DHT22;70058;42.660;23.366;2023-07-20T04:41:36;30.70;37.10
80367;DHT22;70058;42.660;23.366;2023-07-20T04:44:02;30.70;36.60
80367;DHT22;70058;42.660;23.366;2023-07-20T04:46:28;30.10;36.80
80367;DHT22;70058;42.660;23.366;2023-07-20T04:48:53;29.40;38.50
80367;DHT22;70058;42.660;23.366;2023-07-20T04:51:19;29.00;39.30
80367;DHT22;70058;42.660;23.366;2023-07-20T04:53:47;28.50;38.90
80367;DHT22;70058;42.660;23.366;2023-07-20T04:56:14;28.10;40.40
80367;DHT22;70058;42.660;23.366;2023-07-20T04:58:39;28.10;41.00
80367;DHT22;70058;42.660;23.366;2023-07-20T05:01:05;27.90;40.80
80367;DHT22;70058;42.660;23.366;2023-07-20T05:03:30;27.80;40.80
80367;DHT22;70058;42.660;23.366;2023-07-20T05:05:57;27.80;41.30
80367;DHT22;70058;42.660;23.366;2023-07-20T05:08:23;27.90;41.30
80367;DHT22;70058;42.660;23.366;2023-07-20T05:10:48;28.00;40.80
80367;DHT22;70058;42.660;23.366;2023-07-20T05:13:14;28.00;41.10
80367;DHT22;70058;42.660;23.366;2023-07-20T05:15:40;28.10;41.20
80367;DHT22;70058;42.660;23.366;2023-07-20T05:18:06;28.10;41.20
80367;DHT22;70058;42.660;23.366;2023-07-20T05:20:31;28.10;40.80
80367;DHT22;70058;42.660;23.366;2023-07-20T05:22:59;28.20;40.30
80367;DHT22;70058;42.660;23.366;2023-07-20T05:25:24;28.20;40.10
80367;DHT22;70058;42.660;23.366;2023-07-20T05:27:51;28.30;40.00
80367;DHT22;70058;42.660;23.366;2023-07-20T05:30:17;28.30;40.20
80367;DHT22;70058;42.660;23.366;2023-07-20T05:32:43;28.30;40.50
80367;DHT22;70058;42.660;23.366;2023-07-20T05:35:13;28.40;40.20
80367;DHT22;70058;42.660;23.366;2023-07-20T05:37:39;28.50;39.90
80367;DHT22;70058;42.660;23.366;2023-07-20T05:40:06;28.50;40.40
80367;DHT22;70058;42.660;23.366;2023-07-20T05:42:33;28.50;39.80
80367;DHT22;70058;42.660;23.366;2023-07-20T05:44:59;28.70;40.30
80367;DHT22;70058;42.660;23.366;2023-07-20T05:47:24;28.80;39.50
80367;DHT22;70058;42.660;23.366;2023-07-20T05:49:50;29.00;38.80
80367;DHT22;70058;42.660;23.366;2023-07-20T05:52:16;29.30;38.10
80367;DHT22;70058;42.660;23.366;2023-07-20T05:54:41;30.40;37.20
80367;DHT22;70058;42.660;23.366;2023-07-20T05:57:07;32.40;33.80
80367;DHT22;70058;42.660;23.366;2023-07-20T05:59:33;34.40;32.60
80367;DHT22;70058;42.660;23.366;2023-07-20T06:01:59;36.20;29.40
80367;DHT22;70058;42.660;23.366;2023-07-20T06:04:24;37.70;27.20
80367;DHT22;70058;42.660;23.366;2023-07-20T06:06:50;39.00;25.90
80367;DHT22;70058;42.660;23.366;2023-07-20T06:09:15;40.20;24.80
80367;DHT22;70058;42.660;23.366;2023-07-20T06:11:41;41.00;24.00
80367;DHT22;70058;42.660;23.366;2023-07-20T06:14:07;42.00;23.40
80367;DHT22;70058;42.660;23.366;2023-07-20T06:16:32;42.70;22.90
80367;DHT22;70058;42.660;23.366;2023-07-20T06:19:00;43.30;22.10
80367;DHT22;70058;42.660;23.366;2023-07-20T06:21:26;44.00;21.30
80367;DHT22;70058;42.660;23.366;2023-07-20T06:23:51;44.40;20.80
80367;DHT22;70058;42.660;23.366;2023-07-20T06:26:17;45.10;20.40
80367;DHT22;70058;42.660;23.366;2023-07-20T06:28:43;45.50;20.00
80367;DHT22;70058;42.660;23.366;2023-07-20T06:31:08;45.80;19.60
80367;DHT22;70058;42.660;23.366;2023-07-20T06:33:34;46.20;19.50
80367;DHT22;70058;42.660;23.366;2023-07-20T06:36:03;46.70;19.20
80367;DHT22;70058;42.660;23.366;2023-07-20T06:38:29;47.00;18.90
80367;DHT22;70058;42.660;23.366;2023-07-20T06:40:55;47.30;18.60
80367;DHT22;70058;42.660;23.366;2023-07-20T06:43:20;47.30;19.40
80367;DHT22;70058;42.660;23.366;2023-07-20T06:45:51;47.40;18.70
80367;DHT22;70058;42.660;23.366;2023-07-20T06:48:19;46.70;18.80
80367;DHT22;70058;42.660;23.366;2023-07-20T06:50:45;45.50;19.60
80367;DHT22;70058;42.660;23.366;2023-07-20T06:53:10;45.20;19.80
80367;DHT22;70058;42.660;23.366;2023-07-20T06:55:36;46.00;19.40
80367;DHT22;70058;42.660;23.366;2023-07-20T06:58:01;46.90;19.00
80367;DHT22;70058;42.660;23.366;2023-07-20T07:00:28;47.40;18.50
80367;DHT22;70058;42.660;23.366;2023-07-20T07:02:54;48.10;18.00
80367;DHT22;70058;42.660;23.366;2023-07-20T07:05:20;48.70;17.80
80367;DHT22;70058;42.660;23.366;2023-07-20T07:07:45;49.30;17.60
80367;DHT22;70058;42.660;23.366;2023-07-20T07:10:11;48.70;17.60
80367;DHT22;70058;42.660;23.366;2023-07-20T07:12:37;46.70;17.90
80367;DHT22;70058;42.660;23.366;2023-07-20T07:15:04;45.10;19.60
80367;DHT22;70058;42.660;23.366;2023-07-20T07:17:32;44.10;20.30
80367;DHT22;70058;42.660;23.366;2023-07-20T07:19:58;43.50;20.40
80367;DHT22;70058;42.660;23.366;2023-07-20T07:22:24;43.60;20.50
80367;DHT22;70058;42.660;23.366;2023-07-20T07:24:50;44.40;20.20
80367;DHT22;70058;42.660;23.366;2023-07-20T07:27:16;45.70;19.50
80367;DHT22;70058;42.660;23.366;2023-07-20T07:29:42;46.70;18.50
80367;DHT22;70058;42.660;23.366;2023-07-20T07:32:10;47.80;17.80
80367;DHT22;70058;42.660;23.366;2023-07-20T07:34:36;48.80;17.30
80367;DHT22;70058;42.660;23.366;2023-07-20T07:37:03;49.20;17.20
80367;DHT22;70058;42.660;23.366;2023-07-20T07:39:29;50.00;16.70
80367;DHT22;70058;42.660;23.366;2023-07-20T07:41:56;50.50;16.20
80367;DHT22;70058;42.660;23.366;2023-07-20T07:44:21;51.10;16.00
80367;DHT22;70058;42.660;23.366;2023-07-20T07:46:47;51.50;15.70
80367;DHT22;70058;42.660;23.366;2023-07-20T07:49:13;51.90;15.40
80367;DHT22;70058;42.660;23.366;2023-07-20T07:51:38;52.00;15.40
80367;DHT22;70058;42.660;23.366;2023-07-20T07:54:04;52.20;15.40
80367;DHT22;70058;42.660;23.366;2023-07-20T07:56:30;52.10;15.40
80367;DHT22;70058;42.660;23.366;2023-07-20T07:58:55;52.10;15.10
80367;DHT22;70058;42.660;23.366;2023-07-20T08:01:21;52.40;15.10
80367;DHT22;70058;42.660;23.366;2023-07-20T08:03:47;52.40;15.10
80367;DHT22;70058;42.660;23.366;2023-07-20T08:06:14;52.00;15.30
80367;DHT22;70058;42.660;23.366;2023-07-20T08:08:39;51.80;15.50
80367;DHT22;70058;42.660;23.366;2023-07-20T08:11:05;52.10;15.30
80367;DHT22;70058;42.660;23.366;2023-07-20T08:13:31;52.20;15.20
80367;DHT22;70058;42.660;23.366;2023-07-20T08:15:58;52.50;15.40
80367;DHT22;70058;42.660;23.366;2023-07-20T08:18:24;52.80;15.10
80367;DHT22;70058;42.660;23.366;2023-07-20T08:20:49;53.10;15.10
80367;DHT22;70058;42.660;23.366;2023-07-20T08:23:15;53.40;15.10
80367;DHT22;70058;42.660;23.366;2023-07-20T08:25:41;52.90;15.30
80367;DHT22;70058;42.660;23.366;2023-07-20T08:28:15;52.40;15.30
80367;DHT22;70058;42.660;23.366;2023-07-20T08:30:42;52.50;14.90
80367;DHT22;70058;42.660;23.366;2023-07-20T08:33:09;52.80;14.10
80367;DHT22;70058;42.660;23.366;2023-07-20T08:35:34;52.60;14.10
80367;DHT22;70058;42.660;23.366;2023-07-20T08:38:00;52.90;14.30
80367;DHT22;70058;42.660;23.366;2023-07-20T08:40:26;53.50;14.00
80367;DHT22;70058;42.660;23.366;2023-07-20T08:42:53;53.60;13.80
80367;DHT22;70058;42.660;23.366;2023-07-20T08:45:20;54.30;13.50
80367;DHT22;70058;42.660;23.366;2023-07-20T08:47:47;54.90;13.30
80367;DHT22;70058;42.660;23.366;2023-07-20T08:50:15;55.30;13.10
80367;DHT22;70058;42.660;23.366;2023-07-20T08:52:41;55.70;13.10
80367;DHT22;70058;42.660;23.366;2023-07-20T08:55:07;56.30;12.60
80367;DHT22;70058;42.660;23.366;2023-07-20T08:57:34;56.90;12.30
80367;DHT22;70058;42.660;23.366;2023-07-20T09:00:03;56.80;11.90
80367;DHT22;70058;42.660;23.366;2023-07-20T09:02:35;56.50;12.10
80367;DHT22;70058;42.660;23.366;2023-07-20T09:05:04;56.40;11.90
80367;DHT22;70058;42.660;23.366;2023-07-20T09:07:31;55.90;12.00
80367;DHT22;70058;42.660;23.366;2023-07-20T09:09:57;55.90;12.20
80367;DHT22;70058;42.660;23.366;2023-07-20T09:12:23;55.60;12.10
80367;DHT22;70058;42.660;23.366;2023-07-20T09:14:49;55.40;12.40
80367;DHT22;70058;42.660;23.366;2023-07-20T09:17:15;55.10;12.50
80367;DHT22;70058;42.660;23.366;2023-07-20T09:19:48;55.50;12.50
80367;DHT22;70058;42.660;23.366;2023-07-20T09:22:13;55.90;12.20
80367;DHT22;70058;42.660;23.366;2023-07-20T09:24:39;56.40;12.00
80367;DHT22;70058;42.660;23.366;2023-07-20T09:27:07;57.10;11.80
80367;DHT22;70058;42.660;23.366;2023-07-20T09:29:32;57.30;11.60
80367;DHT22;70058;42.660;23.366;2023-07-20T09:31:59;57.70;11.50
80367;DHT22;70058;42.660;23.366;2023-07-20T09:34:27;58.10;11.30
80367;DHT22;70058;42.660;23.366;2023-07-20T09:36:53;58.70;11.20
80367;DHT22;70058;42.660;23.366;2023-07-20T09:39:20;58.20;11.00
80367;DHT22;70058;42.660;23.366;2023-07-20T09:41:46;58.50;11.10
80367;DHT22;70058;42.660;23.366;2023-07-20T09:44:16;58.80;10.50
80367;DHT22;70058;42.660;23.366;2023-07-20T09:46:49;58.40;10.60
80367;DHT22;70058;42.660;23.366;2023-07-20T09:49:15;58.70;10.60
80367;DHT22;70058;42.660;23.366;2023-07-20T09:51:42;59.20;10.50
80367;DHT22;70058;42.660;23.366;2023-07-20T09:54:10;59.60;10.20
80367;DHT22;70058;42.660;23.366;2023-07-20T09:56:38;59.90;10.10
80367;DHT22;70058;42.660;23.366;2023-07-20T09:59:05;59.70;9.90
80367;DHT22;70058;42.660;23.366;2023-07-20T10:01:32;57.30;10.80
80367;DHT22;70058;42.660;23.366;2023-07-20T10:03:58;54.80;11.90
80367;DHT22;70058;42.660;23.366;2023-07-20T10:06:28;52.10;13.10
80367;DHT22;70058;42.660;23.366;2023-07-20T10:09:03;49.50;14.10
80367;DHT22;70058;42.660;23.366;2023-07-20T10:11:35;47.50;15.60
80367;DHT22;70058;42.660;23.366;2023-07-20T10:14:04;45.70;16.80
80367;DHT22;70058;42.660;23.366;2023-07-20T10:16:39;44.20;17.50
80367;DHT22;70058;42.660;23.366;2023-07-20T10:22:02;42.30;19.00
80367;DHT22;70058;42.660;23.366;2023-07-20T10:24:29;41.60;19.60
80367;DHT22;70058;42.660;23.366;2023-07-20T10:26:58;41.10;19.90
80367;DHT22;70058;42.660;23.366;2023-07-20T10:29:25;40.60;20.50
80367;DHT22;70058;42.660;23.366;2023-07-20T10:31:54;40.20;21.20
80367;DHT22;70058;42.660;23.366;2023-07-20T10:34:20;39.70;21.80
80367;DHT22;70058;42.660;23.366;2023-07-20T10:36:46;39.30;22.10
80367;DHT22;70058;42.660;23.366;2023-07-20T10:39:26;39.00;22.30
80367;DHT22;70058;42.660;23.366;2023-07-20T10:44:29;38.30;23.00
80367;DHT22;70058;42.660;23.366;2023-07-20T10:47:02;38.00;22.90
80367;DHT22;70058;42.660;23.366;2023-07-20T10:49:28;37.80;23.00
80367;DHT22;70058;42.660;23.366;2023-07-20T10:51:59;37.70;22.60
80367;DHT22;70058;42.660;23.366;2023-07-20T10:56:55;37.20;23.90
80367;DHT22;70058;42.660;23.366;2023-07-20T11:01:55;37.90;24.10
80367;DHT22;70058;42.660;23.366;2023-07-20T11:04:54;38.40;23.30
80367;DHT22;70058;42.660;23.366;2023-07-20T11:07:37;38.70;22.90
80367;DHT22;70058;42.660;23.366;2023-07-20T11:10:13;38.80;22.80
80367;DHT22;70058;42.660;23.366;2023-07-20T11:12:39;38.90;22.40
80367;DHT22;70058;42.660;23.366;2023-07-20T11:15:05;39.00;22.00
80367;DHT22;70058;42.660;23.366;2023-07-20T11:17:31;39.00;22.10
80367;DHT22;70058;42.660;23.366;2023-07-20T11:19:59;39.00;22.10
80367;DHT22;70058;42.660;23.366;2023-07-20T11:22:27;38.90;22.30
80367;DHT22;70058;42.660;23.366;2023-07-20T11:24:56;39.00;21.80
80367;DHT22;70058;42.660;23.366;2023-07-20T11:27:21;39.00;22.20
80367;DHT22;70058;42.660;23.366;2023-07-20T11:29:50;39.10;22.20
80367;DHT22;70058;42.660;23.366;2023-07-20T11:32:25;39.10;22.10
80367;DHT22;70058;42.660;23.366;2023-07-20T11:34:50;39.10;22.00
80367;DHT22;70058;42.660;23.366;2023-07-20T11:37:19;39.10;22.20
80367;DHT22;70058;42.660;23.366;2023-07-20T11:39:45;39.10;22.70
80367;DHT22;70058;42.660;23.366;2023-07-20T11:42:11;38.90;21.90
80367;DHT22;70058;42.660;23.366;2023-07-20T11:44:38;38.50;22.20
80367;DHT22;70058;42.660;23.366;2023-07-20T11:49:30;37.40;23.20
80367;DHT22;70058;42.660;23.366;2023-07-20T11:51:56;37.10;23.80
80367;DHT22;70058;42.660;23.366;2023-07-20T11:54:23;36.70;24.40
80367;DHT22;70058;42.660;23.366;2023-07-20T11:56:53;36.50;24.60
80367;DHT22;70058;42.660;23.366;2023-07-20T11:59:20;36.00;24.90
80367;DHT22;70058;42.660;23.366;2023-07-20T12:01:46;35.80;25.20
80367;DHT22;70058;42.660;23.366;2023-07-20T12:04:11;35.50;25.80
80367;DHT22;70058;42.660;23.366;2023-07-20T12:06:37;35.40;26.10
80367;DHT22;70058;42.660;23.366;2023-07-20T12:09:03;35.30;26.20
80367;DHT22;70058;42.660;23.366;2023-07-20T12:11:36;35.30;25.60
80367;DHT22;70058;42.660;23.366;2023-07-20T12:14:07;35.30;25.50
80367;DHT22;70058;42.660;23.366;2023-07-20T12:16:36;35.30;25.90
80367;DHT22;70058;42.660;23.366;2023-07-20T12:19:11;35.20;25.80
80367;DHT22;70058;42.660;23.366;2023-07-20T12:21:39;35.20;25.90
80367;DHT22;70058;42.660;23.366;2023-07-20T12:24:06;35.10;26.00
80367;DHT22;70058;42.660;23.366;2023-07-20T12:26:33;35.20;25.40
80367;DHT22;70058;42.660;23.366;2023-07-20T12:28:59;35.10;26.10
80367;DHT22;70058;42.660;23.366;2023-07-20T12:31:26;34.80;25.70
80367;DHT22;70058;42.660;23.366;2023-07-20T12:33:52;34.50;25.80
80367;DHT22;70058;42.660;23.366;2023-07-20T12:36:18;34.50;25.90
80367;DHT22;70058;42.660;23.366;2023-07-20T12:38:44;34.60;25.40
80367;DHT22;70058;42.660;23.366;2023-07-20T12:41:11;34.50;25.40
80367;DHT22;70058;42.660;23.366;2023-07-20T12:43:38;34.70;24.70
80367;DHT22;70058;42.660;23.366;2023-07-20T12:46:04;34.70;24.60
80367;DHT22;70058;42.660;23.366;2023-07-20T12:48:30;34.60;24.70
80367;DHT22;70058;42.660;23.366;2023-07-20T12:50:56;34.60;24.60
80367;DHT22;70058;42.660;23.366;2023-07-20T12:53:21;34.60;24.60
80367;DHT22;70058;42.660;23.366;2023-07-20T12:55:47;34.70;25.50
80367;DHT22;70058;42.660;23.366;2023-07-20T12:58:13;34.60;24.90
80367;DHT22;70058;42.660;23.366;2023-07-20T13:00:39;34.80;24.60
80367;DHT22;70058;42.660;23.366;2023-07-20T13:03:06;34.80;25.20
80367;DHT22;70058;42.660;23.366;2023-07-20T13:05:32;34.60;25.30
80367;DHT22;70058;42.660;23.366;2023-07-20T13:07:58;34.70;25.10
80367;DHT22;70058;42.660;23.366;2023-07-20T13:10:24;34.70;25.00
80367;DHT22;70058;42.660;23.366;2023-07-20T13:12:50;34.70;24.80
80367;DHT22;70058;42.660;23.366;2023-07-20T13:15:17;34.80;25.20
80367;DHT22;70058;42.660;23.366;2023-07-20T13:17:42;34.50;25.40
80367;DHT22;70058;42.660;23.366;2023-07-20T13:20:09;34.20;25.70
80367;DHT22;70058;42.660;23.366;2023-07-20T13:22:39;34.30;25.60
80367;DHT22;70058;42.660;23.366;2023-07-20T13:25:05;34.10;25.90
80367;DHT22;70058;42.660;23.366;2023-07-20T13:27:32;34.10;26.00
80367;DHT22;70058;42.660;23.366;2023-07-20T13:29:58;33.90;26.50
80367;DHT22;70058;42.660;23.366;2023-07-20T13:32:26;33.90;26.10
80367;DHT22;70058;42.660;23.366;2023-07-20T13:34:52;34.20;26.20
80367;DHT22;70058;42.660;23.366;2023-07-20T13:37:18;34.10;26.40
80367;DHT22;70058;42.660;23.366;2023-07-20T13:39:43;33.90;26.60
80367;DHT22;70058;42.660;23.366;2023-07-20T13:42:09;34.00;26.70
80367;DHT22;70058;42.660;23.366;2023-07-20T13:44:36;34.10;26.70
80367;DHT22;70058;42.660;23.366;2023-07-20T13:47:03;34.00;26.90
80367;DHT22;70058;42.660;23.366;2023-07-20T13:49:31;33.90;27.10
80367;DHT22;70058;42.660;23.366;2023-07-20T13:51:57;34.00;27.10
80367;DHT22;70058;42.660;23.366;2023-07-20T13:54:24;34.10;27.00
80367;DHT22;70058;42.660;23.366;2023-07-20T13:56:49;34.20;26.70
80367;DHT22;70058;42.660;23.366;2023-07-20T13:59:16;34.10;26.80
80367;DHT22;70058;42.660;23.366;2023-07-20T14:01:41;33.90;26.90
80367;DHT22;70058;42.660;23.366;2023-07-20T14:04:07;33.80;26.00
80367;DHT22;70058;42.660;23.366;2023-07-20T14:06:34;33.70;25.50
80367;DHT22;70058;42.660;23.366;2023-07-20T14:09:01;33.70;25.30
80367;DHT22;70058;42.660;23.366;2023-07-20T14:11:27;33.70;24.70
80367;DHT22;70058;42.660;23.366;2023-07-20T14:13:53;33.60;25.30
80367;DHT22;70058;42.660;23.366;2023-07-20T14:16:22;33.60;25.50
80367;DHT22;70058;42.660;23.366;2023-07-20T14:18:49;33.50;26.10
80367;DHT22;70058;42.660;23.366;2023-07-20T14:21:16;33.40;26.20
80367;DHT22;70058;42.660;23.366;2023-07-20T14:23:42;33.50;26.10
80367;DHT22;70058;42.660;23.366;2023-07-20T14:26:07;33.30;26.70
80367;DHT22;70058;42.660;23.366;2023-07-20T14:28:34;33.20;26.60
80367;DHT22;70058;42.660;23.366;2023-07-20T14:31:00;33.20;26.70
80367;DHT22;70058;42.660;23.366;2023-07-20T14:33:26;32.90;27.30
80367;DHT22;70058;42.660;23.366;2023-07-20T14:35:51;32.90;27.00
80367;DHT22;70058;42.660;23.366;2023-07-20T14:38:17;32.90;27.50
80367;DHT22;70058;42.660;23.366;2023-07-20T14:40:42;32.90;27.50
80367;DHT22;70058;42.660;23.366;2023-07-20T14:43:08;33.00;27.30
80367;DHT22;70058;42.660;23.366;2023-07-20T14:45:34;32.90;27.10
80367;DHT22;70058;42.660;23.366;2023-07-20T14:48:02;33.00;27.30
80367;DHT22;70058;42.660;23.366;2023-07-20T14:50:28;32.70;27.80
80367;DHT22;70058;42.660;23.366;2023-07-20T14:52:54;32.70;28.20
80367;DHT22;70058;42.660;23.366;2023-07-20T14:55:20;32.90;28.20
80367;DHT22;70058;42.660;23.366;2023-07-20T14:57:46;32.80;28.00
80367;DHT22;70058;42.660;23.366;2023-07-20T15:00:14;32.70;28.00
80367;DHT22;70058;42.660;23.366;2023-07-20T15:02:40;32.70;28.20
80367;DHT22;70058;42.660;23.366;2023-07-20T15:05:09;32.70;28.60
80367;DHT22;70058;42.660;23.366;2023-07-20T15:07:36;32.70;28.40
80367;DHT22;70058;42.660;23.366;2023-07-20T15:10:05;32.70;28.70
80367;DHT22;70058;42.660;23.366;2023-07-20T15:12:31;32.90;28.20
80367;DHT22;70058;42.660;23.366;2023-07-20T15:15:06;32.80;28.80
80367;DHT22;70058;42.660;23.366;2023-07-20T15:17:33;32.70;28.80
80367;DHT22;70058;42.660;23.366;2023-07-20T15:19:59;32.60;29.00
80367;DHT22;70058;42.660;23.366;2023-07-20T15:22:25;32.30;28.70
80367;DHT22;70058;42.660;23.366;2023-07-20T15:24:51;32.20;28.70
80367;DHT22;70058;42.660;23.366;2023-07-20T15:27:17;32.30;28.60
80367;DHT22;70058;42.660;23.366;2023-07-20T15:29:42;32.40;28.90
80367;DHT22;70058;42.660;23.366;2023-07-20T15:32:09;32.40;28.30
80367;DHT22;70058;42.660;23.366;2023-07-20T15:34:35;32.30;28.30